sensor_id;sensor_type;location;lat;lon;timestamp;P1;durP1;ratioP1;P2;durP2;ratioP2
14876;SDS011;69691;48.172;17.070;2024-03-23T00:56:08;11.52;;;7.22;;
14876;SDS011;69691;48.172;17.070;2024-03-23T00:58:34;17.70;;;7.78;;
14876;SDS011;69691;48.172;17.070;2024-03-23T01:01:00;13.40;;;6.95;;
14876;SDS011;69691;48.172;17.070;2024-03-23T01:03:27;10.10;;;6.60;;
14876;SDS011;69691;48.172;17.070;2024-03-23T01:05:53;15.95;;;6.50;;
14876;SDS011;69691;48.172;17.070;2024-03-23T01:08:19;11.95;;;7.47;;
14876;SDS011;69691;48.172;17.070;2024-03-23T01:10:57;13.23;;;7.30;;
14876;SDS011;69691;48.172;17.070;2024-03-23T01:13:25;13.13;;;7.22;;
14876;SDS011;69691;48.172;17.070;2024-03-23T01:15:52;14.30;;;8.02;;
14876;SDS011;69691;48.172;17.070;2024-03-23T01:18:19;23.55;;;7.03;;
14876;SDS011;69691;48.172;17.070;2024-03-23T01:20:46;16.35;;;7.40;;
14876;SDS011;69691;48.172;17.070;2024-03-23T01:23:12;11.10;;;6.85;;
14876;SDS011;69691;48.172;17.070;2024-03-23T01:25:39;11.13;;;8.13;;
14876;SDS011;69691;48.172;17.070;2024-03-23T01:28:05;11.18;;;8.15;;
14876;SDS011;69691;48.172;17.070;2024-03-23T01:30:34;10.07;;;7.07;;
14876;SDS011;69691;48.172;17.070;2024-03-23T01:33:01;14.43;;;6.65;;
14876;SDS011;69691;48.172;17.070;2024-03-23T01:35:28;10.98;;;7.35;;
14876;SDS011;69691;48.172;17.070;2024-03-23T01:37:54;14.18;;;8.18;;
14876;SDS011;69691;48.172;17.070;2024-03-23T01:40:20;14.40;;;9.75;;
14876;SDS011;69691;48.172;17.070;2024-03-23T01:42:58;14.40;;;8.63;;
14876;SDS011;69691;48.172;17.070;2024-03-23T01:45:30;15.60;;;8.98;;
14876;SDS011;69691;48.172;17.070;2024-03-23T01:47:58;13.13;;;8.95;;
14876;SDS011;69691;48.172;17.070;2024-03-23T01:50:24;14.48;;;10.13;;
14876;SDS011;69691;48.172;17.070;2024-03-23T01:52:52;13.38;;;8.07;;
14876;SDS011;69691;48.172;17.070;2024-03-23T01:55:19;16.65;;;9.10;;
14876;SDS011;69691;48.172;17.070;2024-03-23T01:57:45;15.35;;;8.63;;
14876;SDS011;69691;48.172;17.070;2024-03-23T02:00:11;15.48;;;8.18;;
14876;SDS011;69691;48.172;17.070;2024-03-23T02:02:44;16.23;;;11.45;;
14876;SDS011;69691;48.172;17.070;2024-03-23T02:05:11;16.42;;;9.63;;
14876;SDS011;69691;48.172;17.070;2024-03-23T02:07:41;13.93;;;8.82;;
14876;SDS011;69691;48.172;17.070;2024-03-23T02:10:08;14.93;;;9.43;;
14876;SDS011;69691;48.172;17.070;2024-03-23T02:12:35;13.50;;;8.65;;
14876;SDS011;69691;48.172;17.070;2024-03-23T02:15:02;14.05;;;8.57;;
14876;SDS011;69691;48.172;17.070;2024-03-23T02:17:32;14.13;;;9.57;;
14876;SDS011;69691;48.172;17.070;2024-03-23T02:19:59;12.45;;;6.80;;
14876;SDS011;69691;48.172;17.070;2024-03-23T02:22:36;14.32;;;7.32;;
14876;SDS011;69691;48.172;17.070;2024-03-23T02:25:03;16.00;;;8.02;;
14876;SDS011;69691;48.172;17.070;2024-03-23T02:27:30;18.35;;;7.30;;
14876;SDS011;69691;48.172;17.070;2024-03-23T02:29:56;9.88;;;7.65;;
14876;SDS011;69691;48.172;17.070;2024-03-23T02:32:22;15.48;;;6.72;;
14876;SDS011;69691;48.172;17.070;2024-03-23T02:34:48;14.40;;;7.43;;
14876;SDS011;69691;48.172;17.070;2024-03-23T02:37:14;11.93;;;6.93;;
14876;SDS011;69691;48.172;17.070;2024-03-23T02:39:40;20.23;;;7.80;;
14876;SDS011;69691;48.172;17.070;2024-03-23T02:42:06;10.40;;;7.40;;
14876;SDS011;69691;48.172;17.070;2024-03-23T02:44:31;15.18;;;7.43;;
14876;SDS011;69691;48.172;17.070;2024-03-23T02:46:57;14.43;;;7.93;;
14876;SDS011;69691;48.172;17.070;2024-03-23T02:49:23;11.10;;;7.18;;
14876;SDS011;69691;48.172;17.070;2024-03-23T02:51:49;13.15;;;7.45;;
14876;SDS011;69691;48.172;17.070;2024-03-23T02:54:15;18.75;;;7.82;;
14876;SDS011;69691;48.172;17.070;2024-03-23T02:56:41;13.05;;;8.48;;
14876;SDS011;69691;48.172;17.070;2024-03-23T02:59:07;13.98;;;9.02;;
14876;SDS011;69691;48.172;17.070;2024-03-23T03:01:33;11.05;;;8.23;;
14876;SDS011;69691;48.172;17.070;2024-03-23T03:03:59;15.93;;;8.18;;
14876;SDS011;69691;48.172;17.070;2024-03-23T03:06:26;9.55;;;7.28;;
14876;SDS011;69691;48.172;17.070;2024-03-23T03:08:52;14.35;;;7.75;;
14876;SDS011;69691;48.172;17.070;2024-03-23T03:11:17;15.27;;;8.68;;
14876;SDS011;69691;48.172;17.070;2024-03-23T03:13:43;13.95;;;8.18;;
14876;SDS011;69691;48.172;17.070;2024-03-23T03:16:12;15.52;;;8.52;;
14876;SDS011;69691;48.172;17.070;2024-03-23T03:18:38;15.30;;;10.32;;
14876;SDS011;69691;48.172;17.070;2024-03-23T03:21:05;15.23;;;10.27;;
14876;SDS011;69691;48.172;17.070;2024-03-23T03:23:36;15.05;;;8.60;;
14876;SDS011;69691;48.172;17.070;2024-03-23T03:26:03;19.15;;;9.20;;
14876;SDS011;69691;48.172;17.070;2024-03-23T03:28:33;17.85;;;9.57;;
14876;SDS011;69691;48.172;17.070;2024-03-23T03:31:00;17.55;;;10.07;;
14876;SDS011;69691;48.172;17.070;2024-03-23T03:33:26;16.77;;;8.52;;
14876;SDS011;69691;48.172;17.070;2024-03-23T03:35:53;13.32;;;8.85;;
14876;SDS011;69691;48.172;17.070;2024-03-23T03:38:19;20.88;;;8.40;;
14876;SDS011;69691;48.172;17.070;2024-03-23T03:40:45;14.15;;;8.02;;
14876;SDS011;69691;48.172;17.070;2024-03-23T03:43:12;12.85;;;8.55;;
14876;SDS011;69691;48.172;17.070;2024-03-23T03:45:38;14.45;;;8.40;;
14876;SDS011;69691;48.172;17.070;2024-03-23T03:48:03;15.25;;;8.57;;
14876;SDS011;69691;48.172;17.070;2024-03-23T03:50:30;11.70;;;9.07;;
14876;SDS011;69691;48.172;17.070;2024-03-23T03:52:56;18.15;;;10.77;;
14876;SDS011;69691;48.172;17.070;2024-03-23T03:55:21;17.95;;;10.07;;
14876;SDS011;69691;48.172;17.070;2024-03-23T03:57:47;20.05;;;10.90;;
14876;SDS011;69691;48.172;17.070;2024-03-23T04:00:13;18.02;;;11.38;;
14876;SDS011;69691;48.172;17.070;2024-03-23T04:02:41;17.48;;;11.02;;
14876;SDS011;69691;48.172;17.070;2024-03-23T04:05:07;20.88;;;12.70;;
14876;SDS011;69691;48.172;17.070;2024-03-23T04:07:33;20.83;;;12.45;;
14876;SDS011;69691;48.172;17.070;2024-03-23T04:09:59;25.15;;;11.65;;
14876;SDS011;69691;48.172;17.070;2024-03-23T04:12:25;14.40;;;9.73;;
14876;SDS011;69691;48.172;17.070;2024-03-23T04:14:51;14.15;;;10.55;;
14876;SDS011;69691;48.172;17.070;2024-03-23T04:17:17;15.90;;;10.20;;
14876;SDS011;69691;48.172;17.070;2024-03-23T04:19:43;17.50;;;10.35;;
14876;SDS011;69691;48.172;17.070;2024-03-23T04:22:09;24.80;;;12.25;;
14876;SDS011;69691;48.172;17.070;2024-03-23T04:24:35;18.50;;;11.20;;
14876;SDS011;69691;48.172;17.070;2024-03-23T04:27:01;19.38;;;11.38;;
14876;SDS011;69691;48.172;17.070;2024-03-23T04:29:28;23.98;;;12.27;;
14876;SDS011;69691;48.172;17.070;2024-03-23T04:31:54;17.83;;;11.65;;
14876;SDS011;69691;48.172;17.070;2024-03-23T04:34:20;19.83;;;11.75;;
14876;SDS011;69691;48.172;17.070;2024-03-23T04:36:47;17.38;;;11.02;;
14876;SDS011;69691;48.172;17.070;2024-03-23T04:39:13;16.75;;;11.25;;
14876;SDS011;69691;48.172;17.070;2024-03-23T04:41:39;16.50;;;10.88;;
14876;SDS011;69691;48.172;17.070;2024-03-23T04:44:05;23.00;;;11.48;;
14876;SDS011;69691;48.172;17.070;2024-03-23T04:46:32;24.42;;;13.30;;
14876;SDS011;69691;48.172;17.070;2024-03-23T04:48:58;21.25;;;12.88;;
14876;SDS011;69691;48.172;17.070;2024-03-23T04:51:24;22.00;;;13.77;;
14876;SDS011;69691;48.172;17.070;2024-03-23T04:53:50;24.92;;;13.30;;
14876;SDS011;69691;48.172;17.070;2024-03-23T04:56:16;15.65;;;10.85;;
14876;SDS011;69691;48.172;17.070;2024-03-23T04:58:42;14.38;;;10.30;;
14876;SDS011;69691;48.172;17.070;2024-03-23T05:01:09;19.77;;;12.25;;
14876;SDS011;69691;48.172;17.070;2024-03-23T05:03:36;16.83;;;11.57;;
14876;SDS011;69691;48.172;17.070;2024-03-23T05:06:02;25.08;;;12.30;;
14876;SDS011;69691;48.172;17.070;2024-03-23T05:08:30;23.67;;;12.85;;
14876;SDS011;69691;48.172;17.070;2024-03-23T05:10:56;20.30;;;13.30;;
14876;SDS011;69691;48.172;17.070;2024-03-23T05:13:22;23.80;;;13.82;;
14876;SDS011;69691;48.172;17.070;2024-03-23T05:15:52;24.52;;;14.15;;
14876;SDS011;69691;48.172;17.070;2024-03-23T05:18:21;17.80;;;11.27;;
14876;SDS011;69691;48.172;17.070;2024-03-23T05:20:47;26.77;;;12.27;;
14876;SDS011;69691;48.172;17.070;2024-03-23T05:23:13;24.15;;;16.27;;
14876;SDS011;69691;48.172;17.070;2024-03-23T05:25:38;28.00;;;14.85;;
14876;SDS011;69691;48.172;17.070;2024-03-23T05:28:04;26.88;;;15.40;;
14876;SDS011;69691;48.172;17.070;2024-03-23T05:30:30;32.53;;;14.40;;
14876;SDS011;69691;48.172;17.070;2024-03-23T05:32:56;24.17;;;15.15;;
14876;SDS011;69691;48.172;17.070;2024-03-23T05:35:22;25.27;;;16.33;;
14876;SDS011;69691;48.172;17.070;2024-03-23T05:37:48;27.80;;;17.70;;
14876;SDS011;69691;48.172;17.070;2024-03-23T05:40:14;29.27;;;17.85;;
14876;SDS011;69691;48.172;17.070;2024-03-23T05:42:40;31.25;;;18.27;;
14876;SDS011;69691;48.172;17.070;2024-03-23T05:45:07;28.15;;;18.55;;
14876;SDS011;69691;48.172;17.070;2024-03-23T05:47:33;38.15;;;18.10;;
14876;SDS011;69691;48.172;17.070;2024-03-23T05:49:59;28.30;;;18.05;;
14876;SDS011;69691;48.172;17.070;2024-03-23T05:52:25;28.65;;;17.85;;
14876;SDS011;69691;48.172;17.070;2024-03-23T05:54:52;31.60;;;19.77;;
14876;SDS011;69691;48.172;17.070;2024-03-23T05:57:18;29.42;;;19.83;;
14876;SDS011;69691;48.172;17.070;2024-03-23T05:59:44;36.85;;;20.38;;
14876;SDS011;69691;48.172;17.070;2024-03-23T06:02:10;31.02;;;20.25;;
14876;SDS011;69691;48.172;17.070;2024-03-23T06:04:36;28.30;;;19.67;;
14876;SDS011;69691;48.172;17.070;2024-03-23T06:07:02;29.50;;;20.25;;
14876;SDS011;69691;48.172;17.070;2024-03-23T06:09:31;33.22;;;19.77;;
14876;SDS011;69691;48.172;17.070;2024-03-23T06:11:57;32.45;;;19.73;;
14876;SDS011;69691;48.172;17.070;2024-03-23T06:14:23;37.15;;;21.60;;
14876;SDS011;69691;48.172;17.070;2024-03-23T06:16:49;34.22;;;19.45;;
14876;SDS011;69691;48.172;17.070;2024-03-23T06:19:15;36.90;;;21.55;;
14876;SDS011;69691;48.172;17.070;2024-03-23T06:21:44;35.20;;;20.33;;
14876;SDS011;69691;48.172;17.070;2024-03-23T06:24:11;39.45;;;21.17;;
14876;SDS011;69691;48.172;17.070;2024-03-23T06:26:37;31.45;;;19.73;;
14876;SDS011;69691;48.172;17.070;2024-03-23T06:29:03;36.47;;;20.55;;
14876;SDS011;69691;48.172;17.070;2024-03-23T06:31:30;35.35;;;21.05;;
14876;SDS011;69691;48.172;17.070;2024-03-23T06:33:56;29.10;;;19.73;;
14876;SDS011;69691;48.172;17.070;2024-03-23T06:36:22;38.75;;;20.35;;
14876;SDS011;69691;48.172;17.070;2024-03-23T06:38:48;31.70;;;21.52;;
14876;SDS011;69691;48.172;17.070;2024-03-23T06:41:14;35.35;;;20.42;;
14876;SDS011;69691;48.172;17.070;2024-03-23T06:43:40;34.10;;;21.08;;
14876;SDS011;69691;48.172;17.070;2024-03-23T06:46:06;35.30;;;21.08;;
14876;SDS011;69691;48.172;17.070;2024-03-23T06:48:32;33.85;;;20.92;;
14876;SDS011;69691;48.172;17.070;2024-03-23T06:50:58;34.42;;;21.15;;
14876;SDS011;69691;48.172;17.070;2024-03-23T06:53:24;33.97;;;21.80;;
14876;SDS011;69691;48.172;17.070;2024-03-23T06:55:53;34.78;;;21.05;;
14876;SDS011;69691;48.172;17.070;2024-03-23T06:58:21;31.05;;;19.95;;
14876;SDS011;69691;48.172;17.070;2024-03-23T07:00:48;33.92;;;20.20;;
14876;SDS011;69691;48.172;17.070;2024-03-23T07:03:16;34.72;;;20.50;;
14876;SDS011;69691;48.172;17.070;2024-03-23T07:05:42;31.98;;;21.63;;
14876;SDS011;69691;48.172;17.070;2024-03-23T07:08:08;40.60;;;22.92;;
14876;SDS011;69691;48.172;17.070;2024-03-23T07:10:34;31.25;;;20.50;;
14876;SDS011;69691;48.172;17.070;2024-03-23T07:13:00;32.22;;;20.50;;
14876;SDS011;69691;48.172;17.070;2024-03-23T07:15:26;30.05;;;20.30;;
14876;SDS011;69691;48.172;17.070;2024-03-23T07:17:52;31.25;;;20.48;;
14876;SDS011;69691;48.172;17.070;2024-03-23T07:20:18;28.88;;;19.40;;
14876;SDS011;69691;48.172;17.070;2024-03-23T07:22:45;36.65;;;21.35;;
14876;SDS011;69691;48.172;17.070;2024-03-23T07:25:12;33.42;;;20.65;;
14876;SDS011;69691;48.172;17.070;2024-03-23T07:27:38;35.60;;;20.17;;
14876;SDS011;69691;48.172;17.070;2024-03-23T07:30:05;31.20;;;20.45;;
14876;SDS011;69691;48.172;17.070;2024-03-23T07:32:32;35.65;;;20.45;;
14876;SDS011;69691;48.172;17.070;2024-03-23T07:34:57;30.98;;;20.23;;
14876;SDS011;69691;48.172;17.070;2024-03-23T07:37:23;31.95;;;20.23;;
14876;SDS011;69691;48.172;17.070;2024-03-23T07:39:50;33.22;;;21.42;;
14876;SDS011;69691;48.172;17.070;2024-03-23T07:42:16;34.72;;;19.98;;
14876;SDS011;69691;48.172;17.070;2024-03-23T07:44:42;30.13;;;20.83;;
14876;SDS011;69691;48.172;17.070;2024-03-23T07:47:08;36.85;;;22.00;;
14876;SDS011;69691;48.172;17.070;2024-03-23T07:49:34;34.22;;;21.73;;
14876;SDS011;69691;48.172;17.070;2024-03-23T07:52:00;37.30;;;22.35;;
14876;SDS011;69691;48.172;17.070;2024-03-23T07:54:25;32.97;;;20.10;;
14876;SDS011;69691;48.172;17.070;2024-03-23T07:56:51;32.63;;;22.00;;
14876;SDS011;69691;48.172;17.070;2024-03-23T07:59:17;33.83;;;20.90;;
14876;SDS011;69691;48.172;17.070;2024-03-23T08:01:44;33.67;;;21.05;;
14876;SDS011;69691;48.172;17.070;2024-03-23T08:04:10;31.83;;;21.45;;
14876;SDS011;69691;48.172;17.070;2024-03-23T08:06:36;35.88;;;21.52;;
14876;SDS011;69691;48.172;17.070;2024-03-23T08:09:03;32.42;;;21.20;;
14876;SDS011;69691;48.172;17.070;2024-03-23T08:11:30;34.13;;;20.85;;
14876;SDS011;69691;48.172;17.070;2024-03-23T08:13:57;30.50;;;21.00;;
14876;SDS011;69691;48.172;17.070;2024-03-23T08:16:23;40.72;;;23.88;;
14876;SDS011;69691;48.172;17.070;2024-03-23T08:18:52;36.63;;;23.38;;
14876;SDS011;69691;48.172;17.070;2024-03-23T08:21:20;41.65;;;22.85;;
14876;SDS011;69691;48.172;17.070;2024-03-23T08:23:46;38.00;;;23.70;;
14876;SDS011;69691;48.172;17.070;2024-03-23T08:26:12;34.20;;;22.35;;
14876;SDS011;69691;48.172;17.070;2024-03-23T08:28:41;32.85;;;22.80;;
14876;SDS011;69691;48.172;17.070;2024-03-23T08:31:08;34.78;;;20.80;;
14876;SDS011;69691;48.172;17.070;2024-03-23T08:33:35;40.35;;;23.00;;
14876;SDS011;69691;48.172;17.070;2024-03-23T08:36:06;29.05;;;19.98;;
14876;SDS011;69691;48.172;17.070;2024-03-23T08:38:33;32.38;;;20.90;;
14876;SDS011;69691;48.172;17.070;2024-03-23T08:41:03;28.60;;;19.63;;
14876;SDS011;69691;48.172;17.070;2024-03-23T08:43:41;34.70;;;19.45;;
14876;SDS011;69691;48.172;17.070;2024-03-23T08:46:07;30.33;;;19.98;;
14876;SDS011;69691;48.172;17.070;2024-03-23T08:48:39;25.08;;;17.00;;
14876;SDS011;69691;48.172;17.070;2024-03-23T08:51:11;29.97;;;19.00;;
14876;SDS011;69691;48.172;17.070;2024-03-23T08:53:39;31.15;;;18.75;;
14876;SDS011;69691;48.172;17.070;2024-03-23T08:56:06;29.38;;;18.13;;
14876;SDS011;69691;48.172;17.070;2024-03-23T08:58:33;27.48;;;17.25;;
14876;SDS011;69691;48.172;17.070;2024-03-23T09:01:04;29.42;;;18.77;;
14876;SDS011;69691;48.172;17.070;2024-03-23T09:03:35;31.05;;;17.45;;
14876;SDS011;69691;48.172;17.070;2024-03-23T09:06:02;31.45;;;17.58;;
14876;SDS011;69691;48.172;17.070;2024-03-23T09:08:36;22.50;;;15.43;;
14876;SDS011;69691;48.172;17.070;2024-03-23T09:11:06;23.10;;;15.75;;
14876;SDS011;69691;48.172;17.070;2024-03-23T09:13:33;23.63;;;16.27;;
14876;SDS011;69691;48.172;17.070;2024-03-23T09:16:00;22.52;;;15.75;;
14876;SDS011;69691;48.172;17.070;2024-03-23T09:18:26;24.27;;;17.20;;
14876;SDS011;69691;48.172;17.070;2024-03-23T09:20:52;26.85;;;16.77;;
14876;SDS011;69691;48.172;17.070;2024-03-23T09:23:22;26.95;;;16.05;;
14876;SDS011;69691;48.172;17.070;2024-03-23T09:25:47;30.90;;;19.65;;
14876;SDS011;69691;48.172;17.070;2024-03-23T09:28:13;32.65;;;19.85;;
14876;SDS011;69691;48.172;17.070;2024-03-23T09:30:39;34.53;;;17.02;;
14876;SDS011;69691;48.172;17.070;2024-03-23T09:33:11;26.48;;;18.73;;
14876;SDS011;69691;48.172;17.070;2024-03-23T09:35:38;27.90;;;17.33;;
14876;SDS011;69691;48.172;17.070;2024-03-23T09:38:05;27.60;;;17.85;;
14876;SDS011;69691;48.172;17.070;2024-03-23T09:40:35;33.20;;;20.58;;
14876;SDS011;69691;48.172;17.070;2024-03-23T09:43:07;27.63;;;19.27;;
14876;SDS011;69691;48.172;17.070;2024-03-23T09:45:35;26.83;;;17.67;;
14876;SDS011;69691;48.172;17.070;2024-03-23T09:48:06;28.67;;;16.50;;
14876;SDS011;69691;48.172;17.070;2024-03-23T09:50:36;22.02;;;15.93;;
14876;SDS011;69691;48.172;17.070;2024-03-23T09:53:09;21.60;;;15.85;;
14876;SDS011;69691;48.172;17.070;2024-03-23T09:55:37;24.83;;;15.57;;
14876;SDS011;69691;48.172;17.070;2024-03-23T09:58:04;24.98;;;15.88;;
14876;SDS011;69691;48.172;17.070;2024-03-23T10:00:34;23.17;;;14.85;;
14876;SDS011;69691;48.172;17.070;2024-03-23T10:03:00;22.60;;;15.35;;
14876;SDS011;69691;48.172;17.070;2024-03-23T10:05:30;23.33;;;16.20;;
14876;SDS011;69691;48.172;17.070;2024-03-23T10:10:41;21.30;;;15.60;;
14876;SDS011;69691;48.172;17.070;2024-03-23T10:13:07;23.08;;;15.60;;
14876;SDS011;69691;48.172;17.070;2024-03-23T10:15:36;23.42;;;15.52;;
14876;SDS011;69691;48.172;17.070;2024-03-23T10:18:18;22.83;;;16.17;;
14876;SDS011;69691;48.172;17.070;2024-03-23T10:23:37;20.00;;;13.20;;
14876;SDS011;69691;48.172;17.070;2024-03-23T10:26:24;21.67;;;14.35;;
14876;SDS011;69691;48.172;17.070;2024-03-23T10:28:58;19.38;;;13.93;;
14876;SDS011;69691;48.172;17.070;2024-03-23T10:31:36;20.48;;;14.77;;
14876;SDS011;69691;48.172;17.070;2024-03-23T10:34:02;20.08;;;14.98;;
14876;SDS011;69691;48.172;17.070;2024-03-23T10:36:29;25.65;;;15.02;;
14876;SDS011;69691;48.172;17.070;2024-03-23T10:38:55;22.83;;;15.68;;
14876;SDS011;69691;48.172;17.070;2024-03-23T10:41:27;21.70;;;15.18;;
14876;SDS011;69691;48.172;17.070;2024-03-23T10:43:55;23.10;;;14.00;;
14876;SDS011;69691;48.172;17.070;2024-03-23T10:46:23;19.10;;;14.45;;
14876;SDS011;69691;48.172;17.070;2024-03-23T10:48:49;22.05;;;14.98;;
14876;SDS011;69691;48.172;17.070;2024-03-23T10:51:15;19.40;;;13.77;;
14876;SDS011;69691;48.172;17.070;2024-03-23T10:53:40;21.60;;;14.07;;
14876;SDS011;69691;48.172;17.070;2024-03-23T10:56:07;23.55;;;14.35;;
14876;SDS011;69691;48.172;17.070;2024-03-23T10:58:39;22.40;;;15.13;;
14876;SDS011;69691;48.172;17.070;2024-03-23T11:01:15;21.13;;;15.05;;
14876;SDS011;69691;48.172;17.070;2024-03-23T11:03:45;22.45;;;14.02;;
14876;SDS011;69691;48.172;17.070;2024-03-23T11:06:32;16.85;;;13.38;;
14876;SDS011;69691;48.172;17.070;2024-03-23T11:15:00;18.27;;;13.57;;
14876;SDS011;69691;48.172;17.070;2024-03-23T11:17:31;23.08;;;14.43;;
14876;SDS011;69691;48.172;17.070;2024-03-23T11:20:00;24.80;;;14.73;;
14876;SDS011;69691;48.172;17.070;2024-03-23T11:27:46;22.98;;;13.32;;
14876;SDS011;69691;48.172;17.070;2024-03-23T11:30:14;17.65;;;13.00;;
14876;SDS011;69691;48.172;17.070;2024-03-23T11:32:49;21.88;;;12.20;;
14876;SDS011;69691;48.172;17.070;2024-03-23T11:35:30;17.08;;;12.10;;
14876;SDS011;69691;48.172;17.070;2024-03-23T11:40:38;17.77;;;11.23;;
14876;SDS011;69691;48.172;17.070;2024-03-23T11:43:18;16.38;;;11.30;;
14876;SDS011;69691;48.172;17.070;2024-03-23T11:48:12;19.55;;;12.25;;
14876;SDS011;69691;48.172;17.070;2024-03-23T11:50:45;21.90;;;11.75;;
14876;SDS011;69691;48.172;17.070;2024-03-23T11:53:19;21.27;;;11.10;;
14876;SDS011;69691;48.172;17.070;2024-03-23T11:55:51;16.98;;;12.65;;
14876;SDS011;69691;48.172;17.070;2024-03-23T11:58:21;19.63;;;11.98;;
14876;SDS011;69691;48.172;17.070;2024-03-23T12:01:09;22.13;;;11.68;;
14876;SDS011;69691;48.172;17.070;2024-03-23T12:03:36;14.43;;;11.38;;
14876;SDS011;69691;48.172;17.070;2024-03-23T12:06:02;16.52;;;10.52;;
14876;SDS011;69691;48.172;17.070;2024-03-23T12:08:31;19.75;;;11.70;;
14876;SDS011;69691;48.172;17.070;2024-03-23T12:13:32;15.82;;;10.05;;
14876;SDS011;69691;48.172;17.070;2024-03-23T12:18:50;16.30;;;10.82;;
14876;SDS011;69691;48.172;17.070;2024-03-23T12:21:20;18.88;;;11.00;;
14876;SDS011;69691;48.172;17.070;2024-03-23T12:23:48;17.45;;;12.27;;
14876;SDS011;69691;48.172;17.070;2024-03-23T12:26:15;16.33;;;12.27;;
14876;SDS011;69691;48.172;17.070;2024-03-23T12:28:42;22.40;;;12.13;;
14876;SDS011;69691;48.172;17.070;2024-03-23T12:31:08;15.93;;;12.18;;
14876;SDS011;69691;48.172;17.070;2024-03-23T12:33:35;18.13;;;12.23;;
14876;SDS011;69691;48.172;17.070;2024-03-23T12:36:01;15.38;;;10.40;;
14876;SDS011;69691;48.172;17.070;2024-03-23T12:38:27;14.90;;;10.77;;
14876;SDS011;69691;48.172;17.070;2024-03-23T12:40:53;14.27;;;10.02;;
14876;SDS011;69691;48.172;17.070;2024-03-23T12:43:19;14.73;;;9.40;;
14876;SDS011;69691;48.172;17.070;2024-03-23T12:45:48;12.10;;;9.68;;
14876;SDS011;69691;48.172;17.070;2024-03-23T12:48:15;13.38;;;9.60;;
14876;SDS011;69691;48.172;17.070;2024-03-23T12:50:41;11.40;;;10.18;;
14876;SDS011;69691;48.172;17.070;2024-03-23T12:53:07;14.23;;;10.00;;
14876;SDS011;69691;48.172;17.070;2024-03-23T12:55:36;11.73;;;9.55;;
14876;SDS011;69691;48.172;17.070;2024-03-23T12:58:02;12.80;;;9.55;;
14876;SDS011;69691;48.172;17.070;2024-03-23T13:00:28;13.75;;;8.90;;
14876;SDS011;69691;48.172;17.070;2024-03-23T13:02:54;11.82;;;8.52;;
14876;SDS011;69691;48.172;17.070;2024-03-23T13:05:20;11.90;;;9.00;;
14876;SDS011;69691;48.172;17.070;2024-03-23T13:07:46;11.68;;;8.38;;
14876;SDS011;69691;48.172;17.070;2024-03-23T13:10:11;9.57;;;7.40;;
14876;SDS011;69691;48.172;17.070;2024-03-23T13:12:38;10.30;;;8.00;;
14876;SDS011;69691;48.172;17.070;2024-03-23T13:15:05;14.23;;;8.13;;
14876;SDS011;69691;48.172;17.070;2024-03-23T13:17:31;10.18;;;7.65;;
14876;SDS011;69691;48.172;17.070;2024-03-23T13:19:57;12.23;;;7.28;;
14876;SDS011;69691;48.172;17.070;2024-03-23T13:22:22;9.45;;;7.40;;
14876;SDS011;69691;48.172;17.070;2024-03-23T13:24:48;9.05;;;6.72;;
14876;SDS011;69691;48.172;17.070;2024-03-23T13:27:15;10.52;;;7.72;;
14876;SDS011;69691;48.172;17.070;2024-03-23T13:29:41;10.35;;;7.13;;
14876;SDS011;69691;48.172;17.070;2024-03-23T13:32:06;10.50;;;7.45;;
14876;SDS011;69691;48.172;17.070;2024-03-23T13:34:33;10.90;;;7.20;;
14876;SDS011;69691;48.172;17.070;2024-03-23T13:37:00;10.45;;;7.03;;
14876;SDS011;69691;48.172;17.070;2024-03-23T13:39:26;7.55;;;6.28;;
14876;SDS011;69691;48.172;17.070;2024-03-23T13:41:55;6.82;;;5.70;;
14876;SDS011;69691;48.172;17.070;2024-03-23T13:44:21;10.73;;;5.93;;
14876;SDS011;69691;48.172;17.070;2024-03-23T13:46:47;8.45;;;6.07;;
14876;SDS011;69691;48.172;17.070;2024-03-23T13:49:33;9.30;;;6.20;;
14876;SDS011;69691;48.172;17.070;2024-03-23T13:51:59;14.95;;;5.88;;
14876;SDS011;69691;48.172;17.070;2024-03-23T13:54:28;11.27;;;6.55;;
14876;SDS011;69691;48.172;17.070;2024-03-23T13:56:55;11.05;;;6.50;;
14876;SDS011;69691;48.172;17.070;2024-03-23T13:59:22;29.02;;;4.60;;
14876;SDS011;69691;48.172;17.070;2024-03-23T14:01:48;10.27;;;3.55;;
14876;SDS011;69691;48.172;17.070;2024-03-23T14:04:15;23.70;;;3.40;;
14876;SDS011;69691;48.172;17.070;2024-03-23T14:06:48;8.18;;;3.00;;
14876;SDS011;69691;48.172;17.070;2024-03-23T14:09:14;16.90;;;2.70;;
14876;SDS011;69691;48.172;17.070;2024-03-23T14:11:46;5.32;;;2.47;;
14876;SDS011;69691;48.172;17.070;2024-03-23T14:14:12;11.68;;;3.10;;
14876;SDS011;69691;48.172;17.070;2024-03-23T14:16:38;9.43;;;2.60;;
14876;SDS011;69691;48.172;17.070;2024-03-23T14:19:04;3.28;;;2.67;;
14876;SDS011;69691;48.172;17.070;2024-03-23T14:21:32;3.17;;;2.20;;
14876;SDS011;69691;48.172;17.070;2024-03-23T14:24:00;5.90;;;2.50;;
14876;SDS011;69691;48.172;17.070;2024-03-23T14:26:26;3.38;;;2.45;;
14876;SDS011;69691;48.172;17.070;2024-03-23T14:28:52;2.38;;;2.17;;
14876;SDS011;69691;48.172;17.070;2024-03-23T14:31:19;3.13;;;2.75;;
14876;SDS011;69691;48.172;17.070;2024-03-23T14:33:45;3.38;;;2.65;;
14876;SDS011;69691;48.172;17.070;2024-03-23T14:36:16;7.78;;;2.42;;
14876;SDS011;69691;48.172;17.070;2024-03-23T14:38:46;2.42;;;2.22;;
14876;SDS011;69691;48.172;17.070;2024-03-23T14:41:13;2.95;;;2.53;;
14876;SDS011;69691;48.172;17.070;2024-03-23T14:43:39;3.72;;;2.50;;
14876;SDS011;69691;48.172;17.070;2024-03-23T14:46:06;2.60;;;2.40;;
14876;SDS011;69691;48.172;17.070;2024-03-23T14:48:36;2.55;;;2.35;;
14876;SDS011;69691;48.172;17.070;2024-03-23T14:51:03;3.47;;;2.40;;
14876;SDS011;69691;48.172;17.070;2024-03-23T14:53:30;2.15;;;2.05;;
14876;SDS011;69691;48.172;17.070;2024-03-23T14:56:02;2.45;;;2.22;;
14876;SDS011;69691;48.172;17.070;2024-03-23T14:58:28;2.08;;;1.85;;
14876;SDS011;69691;48.172;17.070;2024-03-23T15:01:04;3.15;;;2.28;;
14876;SDS011;69691;48.172;17.070;2024-03-23T15:03:38;2.15;;;2.05;;
14876;SDS011;69691;48.172;17.070;2024-03-23T15:06:04;6.93;;;2.40;;
14876;SDS011;69691;48.172;17.070;2024-03-23T15:08:31;2.20;;;2.10;;
14876;SDS011;69691;48.172;17.070;2024-03-23T15:11:00;2.30;;;2.10;;
14876;SDS011;69691;48.172;17.070;2024-03-23T15:13:33;3.58;;;2.00;;
14876;SDS011;69691;48.172;17.070;2024-03-23T15:16:00;4.07;;;2.58;;
14876;SDS011;69691;48.172;17.070;2024-03-23T15:18:28;3.53;;;2.30;;
14876;SDS011;69691;48.172;17.070;2024-03-23T15:20:56;2.50;;;1.92;;
14876;SDS011;69691;48.172;17.070;2024-03-23T15:23:27;8.13;;;2.30;;
14876;SDS011;69691;48.172;17.070;2024-03-23T15:25:56;2.97;;;2.65;;
14876;SDS011;69691;48.172;17.070;2024-03-23T15:28:26;2.78;;;2.50;;
14876;SDS011;69691;48.172;17.070;2024-03-23T15:31:06;4.57;;;2.63;;
14876;SDS011;69691;48.172;17.070;2024-03-23T15:33:34;8.73;;;2.40;;
14876;SDS011;69691;48.172;17.070;2024-03-23T15:36:04;3.40;;;2.95;;
14876;SDS011;69691;48.172;17.070;2024-03-23T15:38:33;3.97;;;2.60;;
14876;SDS011;69691;48.172;17.070;2024-03-23T15:40:59;4.47;;;2.92;;